createdAt,value
2022-11-30T00:01:15.464Z,6.70
2022-11-30T00:03:42.274Z,6.70
2022-11-30T00:06:11.207Z,6.70
2022-11-30T00:08:38.108Z,6.80
2022-11-30T00:11:14.098Z,6.70
2022-11-30T00:13:41.862Z,6.70
2022-11-30T00:16:08.712Z,6.70
2022-11-30T00:18:36.353Z,6.70
2022-11-30T00:21:04.831Z,6.70
2022-11-30T00:23:36.889Z,6.70
2022-11-30T00:26:05.379Z,6.70
2022-11-30T00:28:33.156Z,6.70
2022-11-30T00:31:01.458Z,6.70
2022-11-30T00:33:29.290Z,6.60
2022-11-30T00:36:00.433Z,6.70
2022-11-30T00:38:27.183Z,6.70
2022-11-30T00:40:54.063Z,6.70
2022-11-30T00:43:20.873Z,6.70
2022-11-30T00:45:47.651Z,6.60
2022-11-30T00:48:14.291Z,6.60
2022-11-30T00:50:41.396Z,6.70
2022-11-30T00:53:08.024Z,6.70
2022-11-30T00:55:34.775Z,6.70
2022-11-30T00:58:01.763Z,6.70
2022-11-30T01:00:29.014Z,6.80
2022-11-30T01:02:57.054Z,6.70
2022-11-30T01:05:23.639Z,6.80
2022-11-30T01:07:50.539Z,6.80
2022-11-30T01:10:17.811Z,6.80
2022-11-30T01:12:44.431Z,6.80
2022-11-30T01:15:11.573Z,6.80
2022-11-30T01:17:38.167Z,6.80
2022-11-30T01:20:08.177Z,6.80
2022-11-30T01:22:35.469Z,6.80
2022-11-30T01:25:02.740Z,6.80
2022-11-30T01:27:29.580Z,6.90
2022-11-30T01:29:56.969Z,6.80
2022-11-30T01:32:23.677Z,6.80
2022-11-30T01:34:50.288Z,6.90
2022-11-30T01:37:16.942Z,6.90
2022-11-30T01:39:43.565Z,6.80
2022-11-30T01:42:19.258Z,6.80
2022-11-30T01:44:56.135Z,6.80
2022-11-30T01:47:31.024Z,6.80
2022-11-30T01:50:13.071Z,6.80
2022-11-30T01:52:44.916Z,6.80
2022-11-30T01:55:27.891Z,6.90
2022-11-30T01:58:18.237Z,6.90
2022-11-30T02:00:47.791Z,6.90
2022-11-30T02:03:26.650Z,6.90
2022-11-30T02:05:54.079Z,6.90
2022-11-30T02:08:21.560Z,7.00
2022-11-30T02:10:53.449Z,6.90
2022-11-30T02:13:35.124Z,6.90
2022-11-30T02:16:24.615Z,7.00
2022-11-30T02:19:03.715Z,7.00
2022-11-30T02:21:49.822Z,7.00
2022-11-30T02:24:43.180Z,7.00
2022-11-30T02:27:18.742Z,7.00
2022-11-30T02:29:57.567Z,7.00
2022-11-30T02:32:32.406Z,7.00
2022-11-30T02:35:01.597Z,7.00
2022-11-30T02:37:29.766Z,6.90
2022-11-30T02:39:57.740Z,7.00
2022-11-30T02:42:24.379Z,7.00
2022-11-30T02:44:53.098Z,6.90
2022-11-30T02:47:40.392Z,6.90
2022-11-30T02:50:25.857Z,6.90
2022-11-30T02:52:53.222Z,7.00
2022-11-30T02:55:20.782Z,6.90
2022-11-30T02:57:47.654Z,6.90
2022-11-30T03:00:15.792Z,6.90
2022-11-30T03:02:43.109Z,7.00
2022-11-30T03:05:10.208Z,7.00
2022-11-30T03:07:37.139Z,7.00
2022-11-30T03:10:05.350Z,7.00
2022-11-30T03:12:31.977Z,7.00
2022-11-30T03:14:58.584Z,7.00
2022-11-30T03:17:25.224Z,6.90
2022-11-30T03:19:51.911Z,7.00
2022-11-30T03:22:18.606Z,7.00
2022-11-30T03:24:45.570Z,7.00
2022-11-30T03:27:13.214Z,7.00
2022-11-30T03:29:39.827Z,7.00
2022-11-30T03:32:06.820Z,7.00
2022-11-30T03:34:33.748Z,7.00
2022-11-30T03:37:00.491Z,7.00
2022-11-30T03:39:27.321Z,6.90
2022-11-30T03:41:53.926Z,7.00
2022-11-30T03:44:20.622Z,7.00
2022-11-30T03:46:47.297Z,7.00
2022-11-30T03:49:13.953Z,7.00
2022-11-30T03:51:40.543Z,7.00
2022-11-30T03:54:07.283Z,7.00
2022-11-30T03:56:33.872Z,7.00
2022-11-30T03:59:00.543Z,7.00
2022-11-30T04:01:27.985Z,7.00
2022-11-30T04:03:54.738Z,7.00
2022-11-30T04:06:21.842Z,7.00
2022-11-30T04:08:49.169Z,6.90
2022-11-30T04:11:16.624Z,6.90
2022-11-30T04:13:43.648Z,6.90
2022-11-30T04:16:10.444Z,6.90
2022-11-30T04:18:37.958Z,6.90
2022-11-30T04:21:06.619Z,6.90
2022-11-30T04:23:36.760Z,6.90
2022-11-30T04:26:05.445Z,6.90
2022-11-30T04:28:32.338Z,6.90
2022-11-30T04:31:00.843Z,7.00
2022-11-30T04:33:28.405Z,7.00
2022-11-30T04:35:57.985Z,7.00
2022-11-30T04:38:25.504Z,6.90
2022-11-30T04:40:52.501Z,6.90
2022-11-30T04:43:19.747Z,6.90
2022-11-30T04:45:46.861Z,6.90
2022-11-30T04:48:13.910Z,6.90
2022-11-30T04:50:40.571Z,6.90
2022-11-30T04:53:07.729Z,6.80
2022-11-30T04:55:36.071Z,6.90
2022-11-30T04:58:02.762Z,6.90
2022-11-30T05:00:29.428Z,6.90
2022-11-30T05:02:56.865Z,6.90
2022-11-30T05:05:23.748Z,6.90
2022-11-30T05:07:58.330Z,6.90
2022-11-30T05:10:26.860Z,6.90
2022-11-30T05:12:54.038Z,7.00
2022-11-30T05:15:21.049Z,7.00
2022-11-30T05:17:47.836Z,7.00
2022-11-30T05:20:14.733Z,6.90
2022-11-30T05:22:41.494Z,7.00
2022-11-30T05:25:09.316Z,7.00
2022-11-30T05:27:36.712Z,6.90
2022-11-30T05:30:04.397Z,6.90
2022-11-30T05:32:31.060Z,6.90
2022-11-30T05:34:58.260Z,6.80
2022-11-30T05:37:25.430Z,6.80
2022-11-30T05:39:52.073Z,6.80
2022-11-30T05:42:18.779Z,6.90
2022-11-30T05:44:45.892Z,6.90
2022-11-30T05:47:12.933Z,6.90
2022-11-30T05:49:39.719Z,6.90
2022-11-30T05:52:06.361Z,6.90
2022-11-30T05:54:34.247Z,6.90
2022-11-30T05:57:01.218Z,6.90
2022-11-30T05:59:28.012Z,6.90
2022-11-30T06:01:54.747Z,6.90
2022-11-30T06:04:21.821Z,6.90
2022-11-30T06:06:49.459Z,6.90
2022-11-30T06:09:16.164Z,6.90
2022-11-30T06:11:43.136Z,7.00
2022-11-30T06:14:09.808Z,7.00
2022-11-30T06:16:39.521Z,7.00
2022-11-30T06:19:06.355Z,7.00
2022-11-30T06:21:33.096Z,6.90
2022-11-30T06:23:59.738Z,6.90
2022-11-30T06:26:26.413Z,6.90
2022-11-30T06:28:53.085Z,6.90
2022-11-30T06:31:19.812Z,6.90
2022-11-30T06:33:46.570Z,6.90
2022-11-30T06:36:13.225Z,6.90
2022-11-30T06:38:39.860Z,7.00
2022-11-30T06:41:09.251Z,7.00
2022-11-30T06:43:37.436Z,6.90
2022-11-30T06:46:04.783Z,6.90
2022-11-30T06:48:31.544Z,7.00
2022-11-30T06:50:58.829Z,7.00
2022-11-30T06:53:25.758Z,7.00
2022-11-30T06:55:52.560Z,7.00
2022-11-30T06:58:19.473Z,7.00
2022-11-30T07:00:46.451Z,7.00
2022-11-30T07:03:13.406Z,7.10
2022-11-30T07:05:43.933Z,7.00
2022-11-30T07:08:11.838Z,7.00
2022-11-30T07:10:45.709Z,7.00
2022-11-30T07:13:18.708Z,7.00
2022-11-30T07:15:46.039Z,7.00
2022-11-30T07:18:12.902Z,7.10
2022-11-30T07:20:40.419Z,7.10
2022-11-30T07:23:26.201Z,7.10
2022-11-30T07:26:06.628Z,7.10
2022-11-30T07:28:41.534Z,7.10
2022-11-30T07:31:19.231Z,7.20
2022-11-30T07:33:46.386Z,7.20
2022-11-30T07:36:13.186Z,7.10
2022-11-30T07:38:40.319Z,7.20
2022-11-30T07:41:07.226Z,7.20
2022-11-30T07:43:34.274Z,7.20
2022-11-30T07:46:01.545Z,7.20
2022-11-30T07:48:28.563Z,7.20
2022-11-30T07:50:55.357Z,7.30
2022-11-30T07:53:22.043Z,7.30
2022-11-30T07:55:52.773Z,7.10
2022-11-30T07:58:23.326Z,7.10
2022-11-30T08:00:50.015Z,7.10
2022-11-30T08:03:16.702Z,7.00
2022-11-30T08:05:43.324Z,7.00
2022-11-30T08:08:09.916Z,7.10
2022-11-30T08:10:36.556Z,7.10
2022-11-30T08:13:03.266Z,7.10
2022-11-30T08:15:32.714Z,7.10
2022-11-30T08:18:05.284Z,7.20
2022-11-30T08:20:31.918Z,7.20
2022-11-30T08:22:59.458Z,7.20
2022-11-30T08:25:26.118Z,7.20
2022-11-30T08:27:52.761Z,7.30
2022-11-30T08:30:19.434Z,7.20
2022-11-30T08:32:46.074Z,7.20
2022-11-30T08:35:12.666Z,7.20
2022-11-30T08:37:39.356Z,7.20
2022-11-30T08:40:06.700Z,7.10
2022-11-30T08:42:33.340Z,7.20
2022-11-30T08:45:00.611Z,7.20
2022-11-30T08:47:30.330Z,7.30
2022-11-30T08:49:58.011Z,7.30
2022-11-30T08:52:25.135Z,7.40
2022-11-30T08:54:52.175Z,7.40
2022-11-30T08:57:21.386Z,7.50
2022-11-30T08:59:48.331Z,7.40
2022-11-30T09:02:17.940Z,7.40
2022-11-30T09:04:47.516Z,7.50
2022-11-30T09:07:14.488Z,7.50
2022-11-30T09:09:41.121Z,7.50
2022-11-30T09:12:08.078Z,7.60
2022-11-30T09:14:34.766Z,7.60
2022-11-30T09:17:01.395Z,7.60
2022-11-30T09:19:28.114Z,7.70
2022-11-30T09:21:54.832Z,7.80
2022-11-30T09:24:21.628Z,7.90
2022-11-30T09:26:48.391Z,7.90
2022-11-30T09:29:15.065Z,8.00
2022-11-30T09:31:41.842Z,8.00
2022-11-30T09:34:11.596Z,8.10
2022-11-30T09:36:38.260Z,8.00
2022-11-30T09:39:05.002Z,8.00
2022-11-30T09:41:42.110Z,8.00
2022-11-30T09:44:08.705Z,8.10
2022-11-30T09:46:43.739Z,8.00
2022-11-30T09:49:18.986Z,8.00
2022-11-30T09:51:47.681Z,8.20
2022-11-30T09:54:23.112Z,8.10
2022-11-30T09:56:51.600Z,8.20
2022-11-30T09:59:24.834Z,8.10
2022-11-30T10:01:56.723Z,8.10
2022-11-30T10:04:28.981Z,7.90
2022-11-30T10:07:13.631Z,7.90
2022-11-30T10:10:30.861Z,7.90
2022-11-30T10:13:07.456Z,7.90
2022-11-30T10:15:54.230Z,7.90
2022-11-30T10:19:17.792Z,7.90
2022-11-30T10:22:11.027Z,7.90
2022-11-30T10:25:13.903Z,7.80
2022-11-30T10:28:44.920Z,7.80
2022-11-30T10:31:02.939Z,7.80
2022-11-30T10:33:38.731Z,7.90
2022-11-30T10:36:39.586Z,7.80
2022-11-30T10:39:16.178Z,7.90
2022-11-30T10:41:55.901Z,8.00
2022-11-30T10:44:25.444Z,8.20
2022-11-30T10:47:01.029Z,8.20
2022-11-30T10:49:29.972Z,8.20
2022-11-30T10:52:02.837Z,8.20
2022-11-30T10:54:30.698Z,8.20
2022-11-30T10:57:01.014Z,8.10
2022-11-30T10:59:33.600Z,8.00
2022-11-30T11:02:00.282Z,7.90
2022-11-30T11:04:30.656Z,7.90
2022-11-30T11:07:02.491Z,8.00
2022-11-30T11:10:04.487Z,8.00
2022-11-30T11:12:31.143Z,8.00
2022-11-30T11:15:17.445Z,8.10
2022-11-30T11:17:44.321Z,8.20
2022-11-30T11:20:31.406Z,8.10
2022-11-30T11:22:58.334Z,8.00
2022-11-30T11:25:35.351Z,8.00
2022-11-30T11:28:13.662Z,8.00
2022-11-30T11:30:40.852Z,8.00
2022-11-30T11:33:13.659Z,8.10
2022-11-30T11:35:52.403Z,8.20
2022-11-30T11:38:30.885Z,8.10
2022-11-30T11:41:05.090Z,8.10
2022-11-30T11:43:55.782Z,8.20
2022-11-30T11:46:22.748Z,8.30
2022-11-30T11:49:07.554Z,8.10
2022-11-30T11:51:38.246Z,8.10
2022-11-30T11:54:24.680Z,8.20
2022-11-30T11:56:53.010Z,8.10
2022-11-30T11:59:45.235Z,8.10
2022-11-30T12:02:46.254Z,8.20
2022-11-30T12:05:30.215Z,8.10
2022-11-30T12:08:23.230Z,8.10
2022-11-30T12:11:16.683Z,8.10
2022-11-30T12:13:44.705Z,8.10
2022-11-30T12:16:42.115Z,8.20
2022-11-30T12:19:23.423Z,8.10
2022-11-30T12:22:14.187Z,8.00
2022-11-30T12:24:53.776Z,8.10
2022-11-30T12:27:39.965Z,8.10
2022-11-30T12:30:18.149Z,8.00
2022-11-30T12:33:10.006Z,8.00
2022-11-30T12:35:45.547Z,8.00
2022-11-30T12:38:34.502Z,8.00
2022-11-30T12:41:28.830Z,8.00
2022-11-30T12:44:17.965Z,8.00
2022-11-30T12:47:10.054Z,8.00
2022-11-30T12:49:54.759Z,8.10
2022-11-30T12:53:04.382Z,8.00
2022-11-30T12:55:36.661Z,7.90
2022-11-30T12:58:30.874Z,7.90
2022-11-30T13:01:15.227Z,8.00
2022-11-30T13:04:18.412Z,8.00
2022-11-30T13:06:51.607Z,7.90
2022-11-30T13:09:27.230Z,8.00
2022-11-30T13:12:01.782Z,7.90
2022-11-30T13:14:30.806Z,7.90
2022-11-30T13:17:13.393Z,7.80
2022-11-30T13:20:08.121Z,7.90
2022-11-30T13:23:04.722Z,7.80
2022-11-30T13:26:10.433Z,7.90
2022-11-30T13:28:42.868Z,7.80
2022-11-30T13:31:19.791Z,7.80
2022-11-30T13:33:58.128Z,7.80
2022-11-30T13:37:03.132Z,7.70
2022-11-30T13:39:57.237Z,7.80
2022-11-30T13:42:26.572Z,7.70
2022-11-30T13:44:53.554Z,7.70
2022-11-30T13:47:34.011Z,7.70
2022-11-30T13:50:29.158Z,7.70
2022-11-30T13:52:58.770Z,7.70
2022-11-30T13:55:45.074Z,7.70
2022-11-30T13:58:13.432Z,7.80
2022-11-30T14:00:40.626Z,7.70
2022-11-30T14:03:22.607Z,7.70
2022-11-30T14:05:53.869Z,7.70
2022-11-30T14:08:23.500Z,7.60
2022-11-30T14:10:50.952Z,7.50
2022-11-30T14:13:20.055Z,7.50
2022-11-30T14:15:46.716Z,7.50
2022-11-30T14:18:18.920Z,7.60
2022-11-30T14:20:51.717Z,7.60
2022-11-30T14:23:21.284Z,7.60
2022-11-30T14:25:59.118Z,7.50
2022-11-30T14:28:36.001Z,7.50
2022-11-30T14:31:05.562Z,7.50
2022-11-30T14:34:02.248Z,7.50
2022-11-30T14:36:35.746Z,7.50
2022-11-30T14:39:02.366Z,7.60
2022-11-30T14:41:30.943Z,7.50
2022-11-30T14:44:03.440Z,7.50
2022-11-30T14:46:33.609Z,7.50
2022-11-30T14:49:14.749Z,7.40
2022-11-30T14:51:48.074Z,7.40
2022-11-30T14:54:22.360Z,7.30
2022-11-30T14:56:52.253Z,7.30
2022-11-30T14:59:30.927Z,7.30
2022-11-30T15:02:02.334Z,7.30
2022-11-30T15:04:30.041Z,7.40
2022-11-30T15:06:57.556Z,7.30
2022-11-30T15:09:32.315Z,7.30
2022-11-30T15:11:59.612Z,7.30
2022-11-30T15:14:26.318Z,7.30
2022-11-30T15:16:55.200Z,7.30
2022-11-30T15:19:32.021Z,7.30
2022-11-30T15:21:59.498Z,7.30
2022-11-30T15:24:29.329Z,7.30
2022-11-30T15:27:10.281Z,7.30
2022-11-30T15:29:41.453Z,7.30
2022-11-30T15:32:16.230Z,7.30
2022-11-30T15:34:54.882Z,7.30
2022-11-30T15:37:49.888Z,7.20
2022-11-30T15:40:40.201Z,7.10
2022-11-30T15:43:22.731Z,7.00
2022-11-30T15:45:58.541Z,7.00
2022-11-30T15:48:37.771Z,7.00
2022-11-30T15:51:04.633Z,7.20
2022-11-30T15:53:47.379Z,7.20
2022-11-30T15:56:26.993Z,7.20
2022-11-30T15:59:19.614Z,7.20
2022-11-30T16:02:08.654Z,7.20
2022-11-30T16:04:58.173Z,7.20
2022-11-30T16:07:27.937Z,7.30
2022-11-30T16:10:12.940Z,7.30
2022-11-30T16:12:41.030Z,7.20
2022-11-30T16:15:23.454Z,7.20
2022-11-30T16:17:51.944Z,7.20
2022-11-30T16:20:20.814Z,7.10
2022-11-30T16:22:49.075Z,7.00
2022-11-30T16:25:24.364Z,7.00
2022-11-30T16:27:51.517Z,7.10
2022-11-30T16:30:21.376Z,7.10
2022-11-30T16:32:47.972Z,7.20
2022-11-30T16:35:24.789Z,7.10
2022-11-30T16:37:52.164Z,7.10
2022-11-30T16:40:19.227Z,7.20
2022-11-30T16:42:45.866Z,7.20
2022-11-30T16:45:26.287Z,7.20
2022-11-30T16:47:53.056Z,7.30
2022-11-30T16:50:20.104Z,7.30
2022-11-30T16:52:46.820Z,7.20
2022-11-30T16:55:15.821Z,7.30
2022-11-30T16:57:42.719Z,7.20
2022-11-30T17:00:10.965Z,7.20
2022-11-30T17:02:44.776Z,7.20
2022-11-30T17:05:14.040Z,7.20
2022-11-30T17:07:41.251Z,7.20
2022-11-30T17:10:08.878Z,7.20
2022-11-30T17:12:35.837Z,7.20
2022-11-30T17:15:03.746Z,7.20
2022-11-30T17:17:30.326Z,7.30
2022-11-30T17:19:56.976Z,7.20
2022-11-30T17:22:23.679Z,7.20
2022-11-30T17:24:50.496Z,7.10
2022-11-30T17:27:17.243Z,7.30
2022-11-30T17:29:44.025Z,7.20
2022-11-30T17:32:10.668Z,7.20
2022-11-30T17:34:37.302Z,7.00
2022-11-30T17:37:04.020Z,7.00
2022-11-30T17:39:30.716Z,7.00
2022-11-30T17:41:57.433Z,6.80
2022-11-30T17:44:24.126Z,6.70
2022-11-30T17:46:50.773Z,6.70
2022-11-30T17:49:17.429Z,6.70
2022-11-30T17:51:44.106Z,6.70
2022-11-30T17:54:11.730Z,6.80
2022-11-30T17:56:38.326Z,6.80
2022-11-30T17:59:05.016Z,6.80
2022-11-30T18:01:31.788Z,6.80
2022-11-30T18:03:59.106Z,6.80
2022-11-30T18:06:25.855Z,6.70
2022-11-30T18:08:52.557Z,6.70
2022-11-30T18:11:21.853Z,6.70
2022-11-30T18:13:54.547Z,6.80
2022-11-30T18:16:26.917Z,6.90
2022-11-30T18:18:55.845Z,7.00
2022-11-30T18:21:24.326Z,6.90
2022-11-30T18:23:51.673Z,7.00
2022-11-30T18:26:21.342Z,6.90
2022-11-30T18:28:55.000Z,6.90
2022-11-30T18:31:21.770Z,6.90
2022-11-30T18:33:48.672Z,6.80
2022-11-30T18:36:15.370Z,6.90
2022-11-30T18:38:42.030Z,7.00
2022-11-30T18:41:08.674Z,6.90
2022-11-30T18:43:37.044Z,6.80
2022-11-30T18:46:10.198Z,6.70
2022-11-30T18:48:38.533Z,6.70
2022-11-30T18:51:19.896Z,6.90
2022-11-30T18:53:46.974Z,7.00
2022-11-30T18:56:18.147Z,6.90
2022-11-30T18:58:46.389Z,6.90
2022-11-30T19:01:18.650Z,6.90
2022-11-30T19:03:53.108Z,6.80
2022-11-30T19:06:19.839Z,6.80
2022-11-30T19:08:47.792Z,6.70
2022-11-30T19:11:16.419Z,6.80
2022-11-30T19:13:43.779Z,6.70
2022-11-30T19:16:13.755Z,6.70
2022-11-30T19:18:40.846Z,6.80
2022-11-30T19:21:09.680Z,6.90
2022-11-30T19:23:37.700Z,6.90
2022-11-30T19:26:05.936Z,7.00
2022-11-30T19:28:34.502Z,7.00
2022-11-30T19:31:08.142Z,7.00
2022-11-30T19:33:36.619Z,7.00
2022-11-30T19:36:06.210Z,7.00
2022-11-30T19:38:33.076Z,7.00
2022-11-30T19:41:03.900Z,7.00
2022-11-30T19:43:30.688Z,6.90
2022-11-30T19:46:07.164Z,6.90
2022-11-30T19:48:34.103Z,6.90
2022-11-30T19:51:05.345Z,6.90
2022-11-30T19:53:31.985Z,6.90
2022-11-30T19:55:58.681Z,6.90
2022-11-30T19:58:25.397Z,6.90
2022-11-30T20:00:52.066Z,6.90
2022-11-30T20:03:19.817Z,7.00
2022-11-30T20:05:50.621Z,7.00
2022-11-30T20:08:18.121Z,6.90
2022-11-30T20:10:45.352Z,6.90
2022-11-30T20:13:12.045Z,7.00
2022-11-30T20:15:40.176Z,7.00
2022-11-30T20:18:07.782Z,7.00
2022-11-30T20:20:35.141Z,7.00
2022-11-30T20:23:02.261Z,7.00
2022-11-30T20:25:32.870Z,7.00
2022-11-30T20:27:59.939Z,7.00
2022-11-30T20:30:26.971Z,7.00
2022-11-30T20:32:53.598Z,7.00
2022-11-30T20:35:20.248Z,7.00
2022-11-30T20:37:46.929Z,7.00
2022-11-30T20:40:13.666Z,7.00
2022-11-30T20:42:40.379Z,7.00
2022-11-30T20:45:07.782Z,7.00
2022-11-30T20:47:35.343Z,7.10
2022-11-30T20:50:03.148Z,7.00
2022-11-30T20:52:29.939Z,7.00
2022-11-30T20:54:56.585Z,7.00
2022-11-30T20:57:23.385Z,7.00
2022-11-30T20:59:50.061Z,7.10
2022-11-30T21:02:16.734Z,7.10
2022-11-30T21:04:43.595Z,7.10
2022-11-30T21:07:10.191Z,7.00
2022-11-30T21:09:37.999Z,7.00
2022-11-30T21:12:04.965Z,7.00
2022-11-30T21:14:31.594Z,7.00
2022-11-30T21:16:58.220Z,6.90
2022-11-30T21:19:25.079Z,7.00
2022-11-30T21:21:51.802Z,7.00
2022-11-30T21:24:18.405Z,7.00
2022-11-30T21:26:45.018Z,7.00
2022-11-30T21:29:14.690Z,7.00
2022-11-30T21:31:41.584Z,7.00
2022-11-30T21:34:08.600Z,7.00
2022-11-30T21:36:35.326Z,7.00
2022-11-30T21:39:06.447Z,7.00
2022-11-30T21:41:39.079Z,7.00
2022-11-30T21:44:07.324Z,7.00
2022-11-30T21:46:34.150Z,7.00
2022-11-30T21:49:01.427Z,7.00
2022-11-30T21:51:29.480Z,6.90
2022-11-30T21:53:58.943Z,6.90
2022-11-30T21:56:28.343Z,6.90
2022-11-30T21:58:55.875Z,6.90
2022-11-30T22:01:26.419Z,6.90
2022-11-30T22:03:56.244Z,6.80
2022-11-30T22:06:24.548Z,6.90
2022-11-30T22:08:51.493Z,6.80
2022-11-30T22:11:22.261Z,6.80
2022-11-30T22:13:53.304Z,6.90
2022-11-30T22:16:21.891Z,6.80
2022-11-30T22:18:51.380Z,6.90
2022-11-30T22:21:20.885Z,6.80
2022-11-30T22:23:52.555Z,6.80
2022-11-30T22:26:28.217Z,6.90
2022-11-30T22:29:03.925Z,6.90
2022-11-30T22:31:34.314Z,6.90
2022-11-30T22:34:01.425Z,6.90
2022-11-30T22:36:30.016Z,6.90
2022-11-30T22:39:02.177Z,6.90
2022-11-30T22:41:29.863Z,6.90
2022-11-30T22:43:57.153Z,6.90
2022-11-30T22:46:32.702Z,6.90
2022-11-30T22:49:00.871Z,6.90
2022-11-30T22:51:29.743Z,6.90
2022-11-30T22:53:56.744Z,6.80
2022-11-30T22:56:28.109Z,6.80
2022-11-30T22:58:56.458Z,6.80
2022-11-30T23:01:26.001Z,6.90
2022-11-30T23:03:56.313Z,6.80
2022-11-30T23:06:24.612Z,6.80
2022-11-30T23:08:52.423Z,6.70
2022-11-30T23:11:23.850Z,6.70
2022-11-30T23:13:51.254Z,6.80
2022-11-30T23:16:19.143Z,6.80
2022-11-30T23:18:48.660Z,6.70
2022-11-30T23:21:22.636Z,6.80
2022-11-30T23:23:49.370Z,6.80
2022-11-30T23:26:18.889Z,6.80
2022-11-30T23:28:48.188Z,6.70
2022-11-30T23:31:34.571Z,6.60
2022-11-30T23:34:04.597Z,6.60
2022-11-30T23:36:31.904Z,6.50
2022-11-30T23:39:01.157Z,6.40
2022-11-30T23:41:28.089Z,6.40
2022-11-30T23:43:55.262Z,6.30
2022-11-30T23:46:22.520Z,6.20
2022-11-30T23:48:49.175Z,6.20
2022-11-30T23:51:16.119Z,6.10
2022-11-30T23:53:42.707Z,6.00
2022-11-30T23:56:14.673Z,6.10
2022-11-30T23:58:41.517Z,6.00
